createdAt,value
2018-06-16T00:01:43.745Z,20.06
2018-06-16T00:04:11.158Z,20.05
2018-06-16T00:06:38.699Z,20.02
2018-06-16T00:09:06.112Z,19.98
2018-06-16T00:11:33.739Z,19.92
2018-06-16T00:14:01.842Z,19.89
2018-06-16T00:16:29.351Z,19.85
2018-06-16T00:18:56.869Z,19.85
2018-06-16T00:21:24.349Z,19.81
2018-06-16T00:23:51.840Z,19.76
2018-06-16T00:26:19.334Z,19.70
2018-06-16T00:28:46.786Z,19.49
2018-06-16T00:31:14.210Z,19.35
2018-06-16T00:33:41.714Z,19.36
2018-06-16T00:36:09.268Z,19.36
2018-06-16T00:38:36.688Z,19.43
2018-06-16T00:41:04.092Z,19.49
2018-06-16T00:43:31.514Z,19.50
2018-06-16T00:45:59.297Z,19.51
2018-06-16T00:48:26.754Z,19.40
2018-06-16T00:50:54.219Z,19.32
2018-06-16T00:53:21.663Z,19.31
2018-06-16T00:55:49.059Z,19.22
2018-06-16T00:58:16.581Z,19.11
2018-06-16T01:00:44.036Z,19.11
2018-06-16T01:03:11.510Z,19.18
2018-06-16T01:05:38.913Z,19.19
2018-06-16T01:08:06.353Z,19.19
2018-06-16T01:10:33.799Z,19.19
2018-06-16T01:15:35.074Z,19.19
2018-06-16T01:18:02.519Z,19.21
2018-06-16T01:20:29.960Z,19.22
2018-06-16T01:22:57.425Z,19.24
2018-06-16T01:25:24.871Z,19.22
2018-06-16T01:27:52.357Z,19.18
2018-06-16T01:30:19.791Z,19.13
2018-06-16T01:32:47.241Z,19.08
2018-06-16T01:35:14.685Z,19.06
2018-06-16T01:37:42.134Z,18.99
2018-06-16T01:40:09.561Z,19.00
2018-06-16T01:42:36.998Z,18.98
2018-06-16T01:45:04.465Z,18.93
2018-06-16T01:47:31.946Z,18.89
2018-06-16T01:49:59.334Z,18.90
2018-06-16T01:52:26.750Z,18.89
2018-06-16T01:54:54.143Z,18.87
2018-06-16T01:57:21.612Z,18.88
2018-06-16T01:59:49.047Z,18.77
2018-06-16T02:02:16.516Z,18.68
2018-06-16T02:04:43.991Z,18.61
2018-06-16T02:07:11.401Z,18.57
2018-06-16T02:09:38.890Z,18.52
2018-06-16T02:12:06.326Z,18.48
2018-06-16T02:14:33.874Z,18.46
2018-06-16T02:17:01.380Z,18.47
2018-06-16T02:19:28.886Z,18.45
2018-06-16T02:21:56.321Z,18.43
2018-06-16T02:24:23.831Z,18.44
2018-06-16T02:26:52.168Z,18.39
2018-06-16T02:29:19.600Z,18.34
2018-06-16T02:31:47.084Z,18.30
2018-06-16T02:34:15.077Z,18.22
2018-06-16T02:36:42.555Z,18.21
2018-06-16T02:39:09.983Z,18.15
2018-06-16T02:41:37.537Z,18.12
2018-06-16T02:44:05.004Z,18.09
2018-06-16T02:46:32.450Z,18.09
2018-06-16T02:48:59.903Z,18.03
2018-06-16T02:51:27.333Z,17.99
2018-06-16T02:53:54.837Z,18.01
2018-06-16T02:56:22.372Z,18.01
2018-06-16T02:58:49.855Z,17.98
2018-06-16T03:01:17.342Z,18.01
2018-06-16T03:03:44.794Z,18.03
2018-06-16T03:06:12.333Z,18.04
2018-06-16T03:08:39.791Z,18.04
2018-06-16T03:11:07.310Z,18.02
2018-06-16T03:13:34.726Z,17.96
2018-06-16T03:16:02.189Z,17.94
2018-06-16T03:18:29.652Z,17.93
2018-06-16T03:20:57.087Z,17.95
2018-06-16T03:23:24.542Z,17.86
2018-06-16T03:25:52.071Z,17.90
2018-06-16T03:28:19.468Z,17.90
2018-06-16T03:30:46.907Z,17.90
2018-06-16T03:33:14.341Z,17.88
2018-06-16T03:35:41.827Z,17.79
2018-06-16T03:38:09.242Z,17.82
2018-06-16T03:40:36.715Z,17.83
2018-06-16T03:43:04.164Z,17.85
2018-06-16T03:45:31.654Z,17.83
2018-06-16T03:47:59.231Z,17.85
2018-06-16T03:50:26.884Z,17.81
2018-06-16T03:52:54.395Z,17.77
2018-06-16T03:55:21.898Z,17.72
2018-06-16T03:57:49.318Z,17.71
2018-06-16T04:00:16.754Z,17.65
2018-06-16T04:02:44.214Z,17.62
2018-06-16T04:05:11.652Z,17.57
2018-06-16T04:07:39.042Z,17.57
2018-06-16T04:10:06.492Z,17.65
2018-06-16T04:12:33.980Z,17.74
2018-06-16T04:15:01.497Z,17.78
2018-06-16T04:17:28.937Z,17.65
2018-06-16T04:19:56.434Z,17.49
2018-06-16T04:22:24.003Z,17.40
2018-06-16T04:24:51.448Z,17.43
2018-06-16T04:27:18.947Z,17.52
2018-06-16T04:29:46.400Z,17.54
2018-06-16T04:32:13.876Z,17.59
2018-06-16T04:34:41.371Z,17.57
2018-06-16T04:37:08.788Z,17.60
2018-06-16T04:39:36.230Z,17.68
2018-06-16T04:42:03.630Z,17.79
2018-06-16T04:44:31.095Z,17.85
2018-06-16T04:46:58.518Z,17.98
2018-06-16T04:49:25.984Z,18.13
2018-06-16T04:51:53.447Z,18.24
2018-06-16T04:54:20.914Z,18.31
2018-06-16T04:56:48.400Z,18.29
2018-06-16T04:59:15.884Z,18.27
2018-06-16T05:01:43.327Z,18.39
2018-06-16T05:04:10.747Z,18.43
2018-06-16T05:06:38.239Z,18.53
2018-06-16T05:09:05.703Z,18.65
2018-06-16T05:11:33.132Z,18.80
2018-06-16T05:14:00.552Z,18.95
2018-06-16T05:16:28.090Z,19.19
2018-06-16T05:18:55.548Z,19.28
2018-06-16T05:21:23.013Z,19.37
2018-06-16T05:23:50.452Z,19.41
2018-06-16T05:26:17.838Z,19.49
2018-06-16T05:28:45.403Z,19.53
2018-06-16T05:31:12.885Z,19.62
2018-06-16T05:33:40.366Z,19.81
2018-06-16T05:36:07.845Z,19.88
2018-06-16T05:38:35.242Z,19.97
2018-06-16T05:41:02.785Z,20.05
2018-06-16T05:43:30.404Z,20.15
2018-06-16T05:45:57.935Z,20.25
2018-06-16T05:48:25.427Z,20.33
2018-06-16T05:50:52.878Z,20.37
2018-06-16T05:53:20.372Z,20.39
2018-06-16T05:55:47.816Z,20.47
2018-06-16T05:58:15.328Z,20.54
2018-06-16T06:00:42.800Z,20.58
2018-06-16T06:03:10.250Z,20.55
2018-06-16T06:05:37.741Z,20.40
2018-06-16T06:08:05.192Z,20.46
2018-06-16T06:10:32.750Z,20.64
2018-06-16T06:13:00.228Z,20.80
2018-06-16T06:15:27.667Z,20.79
2018-06-16T06:17:55.084Z,20.84
2018-06-16T06:20:22.545Z,20.62
2018-06-16T06:22:49.935Z,20.53
2018-06-16T06:25:17.388Z,20.55
2018-06-16T06:27:44.840Z,20.77
2018-06-16T06:30:12.290Z,20.95
2018-06-16T06:32:39.716Z,21.08
2018-06-16T06:35:07.150Z,21.10
2018-06-16T06:37:34.650Z,21.22
2018-06-16T06:40:02.122Z,21.43
2018-06-16T06:42:29.594Z,21.71
2018-06-16T06:44:57.038Z,21.88
2018-06-16T06:47:24.681Z,21.91
2018-06-16T06:49:52.145Z,21.90
2018-06-16T06:52:19.611Z,21.90
2018-06-16T06:54:47.085Z,21.90
2018-06-16T06:57:14.572Z,21.89
2018-06-16T06:59:42.023Z,22.03
2018-06-16T07:02:09.592Z,22.24
2018-06-16T07:04:37.027Z,22.55
2018-06-16T07:07:04.487Z,22.76
2018-06-16T07:09:32.002Z,23.10
2018-06-16T07:11:59.412Z,23.31
2018-06-16T07:14:26.851Z,23.11
2018-06-16T07:16:54.410Z,23.01
2018-06-16T07:19:21.960Z,23.00
2018-06-16T07:21:49.397Z,23.16
2018-06-16T07:24:16.859Z,23.74
2018-06-16T07:26:44.379Z,24.11
2018-06-16T07:29:11.943Z,23.83
2018-06-16T07:31:39.385Z,23.97
2018-06-16T07:34:06.802Z,24.19
2018-06-16T07:36:34.203Z,24.35
2018-06-16T07:39:01.761Z,24.33
2018-06-16T07:41:29.324Z,24.50
2018-06-16T07:43:56.728Z,24.72
2018-06-16T07:46:24.188Z,24.79
2018-06-16T07:48:51.710Z,24.59
2018-06-16T07:51:19.582Z,24.58
2018-06-16T07:53:47.077Z,24.58
2018-06-16T07:56:14.607Z,24.70
2018-06-16T07:58:42.186Z,25.05
2018-06-16T08:01:09.648Z,24.50
2018-06-16T08:03:37.140Z,24.28
2018-06-16T08:06:04.591Z,24.48
2018-06-16T08:08:31.997Z,24.45
2018-06-16T08:10:59.442Z,24.24
2018-06-16T08:13:27.043Z,24.31
2018-06-16T08:15:54.583Z,24.92
2018-06-16T08:18:22.018Z,25.33
2018-06-16T08:20:49.449Z,25.67
2018-06-16T08:23:16.976Z,26.07
2018-06-16T08:25:44.490Z,25.34
2018-06-16T08:28:11.977Z,25.13
2018-06-16T08:30:39.427Z,25.62
2018-06-16T08:33:07.281Z,25.72
2018-06-16T08:35:34.698Z,26.04
2018-06-16T08:38:02.210Z,25.51
2018-06-16T08:40:29.647Z,25.46
2018-06-16T08:42:57.108Z,25.49
2018-06-16T08:45:24.655Z,25.43
2018-06-16T08:47:52.088Z,25.63
2018-06-16T08:50:19.562Z,26.26
2018-06-16T08:52:47.030Z,26.62
2018-06-16T08:55:14.507Z,26.28
2018-06-16T08:57:42.372Z,26.03
2018-06-16T09:00:09.851Z,26.22
2018-06-16T09:02:37.321Z,26.08
2018-06-16T09:05:04.781Z,26.03
2018-06-16T09:07:32.332Z,25.91
2018-06-16T09:09:59.806Z,26.02
2018-06-16T09:12:27.231Z,25.88
2018-06-16T09:14:54.712Z,26.42
2018-06-16T09:17:22.270Z,26.93
2018-06-16T09:19:50.179Z,27.44
2018-06-16T09:22:17.676Z,27.17
2018-06-16T09:24:45.120Z,26.73
2018-06-16T09:27:12.529Z,26.55
2018-06-16T09:29:40.038Z,26.40
2018-06-16T09:32:07.495Z,26.52
2018-06-16T09:34:35.445Z,26.67
2018-06-16T09:37:02.904Z,26.47
2018-06-16T09:39:30.919Z,26.38
2018-06-16T09:41:58.369Z,26.85
2018-06-16T09:44:25.951Z,27.07
2018-06-16T09:46:53.384Z,27.28
2018-06-16T09:49:20.842Z,26.91
2018-06-16T09:51:48.359Z,26.80
2018-06-16T09:54:16.968Z,27.20
2018-06-16T09:56:44.448Z,27.49
2018-06-16T09:59:12.095Z,27.46
2018-06-16T10:01:39.572Z,27.47
2018-06-16T10:04:07.035Z,27.44
2018-06-16T10:06:34.487Z,26.99
2018-06-16T10:09:02.217Z,27.06
2018-06-16T10:11:29.711Z,27.04
2018-06-16T10:13:57.176Z,27.04
2018-06-16T10:16:24.649Z,27.01
2018-06-16T10:18:52.160Z,27.31
2018-06-16T10:21:19.669Z,28.02
2018-06-16T10:23:47.134Z,27.75
2018-06-16T10:26:14.579Z,27.77
2018-06-16T10:28:42.164Z,27.77
2018-06-16T10:31:09.612Z,27.49
2018-06-16T10:33:37.128Z,27.45
2018-06-16T10:36:04.587Z,27.45
2018-06-16T10:38:32.060Z,27.41
2018-06-16T10:40:59.923Z,27.12
2018-06-16T10:43:27.405Z,27.47
2018-06-16T10:45:54.844Z,27.74
2018-06-16T10:48:22.494Z,27.62
2018-06-16T10:50:49.950Z,27.67
2018-06-16T10:53:17.399Z,27.56
2018-06-16T10:55:45.760Z,27.64
2018-06-16T10:58:13.242Z,27.52
2018-06-16T11:00:40.813Z,27.66
2018-06-16T11:03:08.888Z,28.01
2018-06-16T11:05:36.470Z,28.31
2018-06-16T11:08:03.890Z,28.38
2018-06-16T11:10:31.359Z,28.31
2018-06-16T11:12:59.002Z,28.83
2018-06-16T11:15:26.478Z,29.01
2018-06-16T11:17:53.951Z,29.43
2018-06-16T11:20:20.935Z,29.57
2018-06-16T11:22:47.912Z,29.26
2018-06-16T11:25:14.941Z,29.52
2018-06-16T11:27:42.413Z,29.90
2018-06-16T11:30:09.861Z,29.69
2018-06-16T11:32:37.271Z,29.28
2018-06-16T11:35:04.855Z,28.61
2018-06-16T11:37:32.314Z,28.58
2018-06-16T11:39:59.731Z,28.62
2018-06-16T11:42:27.162Z,29.03
2018-06-16T11:44:54.661Z,29.22
2018-06-16T11:47:22.146Z,29.18
2018-06-16T11:49:49.653Z,29.31
2018-06-16T11:52:17.334Z,29.59
2018-06-16T11:54:44.907Z,29.56
2018-06-16T11:57:12.349Z,29.78
2018-06-16T11:59:39.952Z,29.51
2018-06-16T12:02:07.462Z,29.23
2018-06-16T12:04:34.908Z,29.28
2018-06-16T12:07:02.880Z,29.71
2018-06-16T12:09:30.346Z,29.74
2018-06-16T12:11:57.780Z,29.61
2018-06-16T12:14:25.314Z,29.51
2018-06-16T12:16:52.775Z,29.14
2018-06-16T12:19:20.291Z,29.39
2018-06-16T12:21:47.783Z,29.20
2018-06-16T12:24:15.396Z,29.19
2018-06-16T12:26:42.869Z,29.35
2018-06-16T12:29:10.426Z,29.32
2018-06-16T12:31:38.077Z,29.89
2018-06-16T12:34:05.624Z,30.01
2018-06-16T12:36:33.077Z,29.49
2018-06-16T12:39:00.607Z,29.32
2018-06-16T12:41:28.253Z,29.23
2018-06-16T12:43:55.788Z,29.49
2018-06-16T12:46:23.237Z,29.32
2018-06-16T12:48:50.787Z,29.31
2018-06-16T12:51:18.251Z,29.15
2018-06-16T12:53:45.686Z,29.16
2018-06-16T12:56:13.132Z,29.41
2018-06-16T12:58:40.607Z,29.32
2018-06-16T13:01:08.055Z,29.44
2018-06-16T13:03:35.635Z,29.47
2018-06-16T13:06:03.119Z,29.52
2018-06-16T13:08:30.631Z,29.69
2018-06-16T13:10:58.113Z,29.95
2018-06-16T13:13:25.591Z,30.14
2018-06-16T13:15:53.058Z,30.14
2018-06-16T13:18:20.571Z,30.18
2018-06-16T13:20:47.554Z,29.86
2018-06-16T13:23:14.519Z,29.74
2018-06-16T13:25:41.535Z,29.76
2018-06-16T13:28:08.603Z,29.54
2018-06-16T13:30:36.014Z,29.56
2018-06-16T13:33:04.475Z,29.40
2018-06-16T13:35:31.654Z,29.45
2018-06-16T13:37:58.710Z,29.49
2018-06-16T13:40:26.134Z,29.61
2018-06-16T13:42:53.334Z,29.38
2018-06-16T13:45:20.806Z,29.23
2018-06-16T13:47:47.845Z,29.45
2018-06-16T13:50:14.891Z,29.42
2018-06-16T13:52:42.332Z,29.78
2018-06-16T13:55:09.429Z,30.07
2018-06-16T13:57:36.835Z,30.23
2018-06-16T14:00:03.869Z,30.29
2018-06-16T14:02:31.428Z,29.95
2018-06-16T14:04:58.916Z,29.83
2018-06-16T14:07:26.339Z,29.64
2018-06-16T14:09:54.286Z,29.40
2018-06-16T14:12:21.766Z,29.50
2018-06-16T14:14:50.312Z,29.87
2018-06-16T14:17:17.727Z,29.74
2018-06-16T14:19:45.134Z,29.87
2018-06-16T14:22:12.598Z,29.97
2018-06-16T14:24:40.055Z,29.60
2018-06-16T14:27:07.557Z,29.54
2018-06-16T14:29:35.275Z,29.36
2018-06-16T14:32:02.730Z,29.26
2018-06-16T14:34:30.134Z,29.46
2018-06-16T14:36:57.600Z,29.54
2018-06-16T14:39:25.026Z,29.15
2018-06-16T14:41:52.541Z,29.19
2018-06-16T14:44:19.994Z,29.17
2018-06-16T14:46:47.483Z,28.98
2018-06-16T14:49:14.986Z,28.71
2018-06-16T14:51:42.417Z,28.59
2018-06-16T14:54:09.847Z,28.48
2018-06-16T14:56:37.326Z,28.19
2018-06-16T14:59:04.765Z,28.06
2018-06-16T15:01:32.282Z,28.10
2018-06-16T15:03:59.720Z,27.90
2018-06-16T15:06:27.807Z,27.82
2018-06-16T15:08:55.364Z,27.92
2018-06-16T15:11:22.993Z,28.00
2018-06-16T15:13:51.346Z,27.92
2018-06-16T15:16:18.810Z,27.89
2018-06-16T15:18:46.248Z,27.98
2018-06-16T15:21:13.659Z,28.12
2018-06-16T15:23:41.212Z,28.27
2018-06-16T15:26:08.739Z,28.23
2018-06-16T15:28:36.245Z,28.41
2018-06-16T15:31:03.888Z,28.55
2018-06-16T15:33:31.587Z,28.57
2018-06-16T15:35:59.103Z,28.87
2018-06-16T15:38:27.025Z,28.84
2018-06-16T15:40:54.601Z,28.61
2018-06-16T15:43:22.263Z,28.81
2018-06-16T15:45:50.507Z,28.77
2018-06-16T15:48:18.152Z,28.72
2018-06-16T15:50:46.268Z,28.35
2018-06-16T15:53:13.798Z,28.10
2018-06-16T15:55:41.359Z,28.19
2018-06-16T15:58:08.791Z,28.42
2018-06-16T16:00:36.394Z,28.38
2018-06-16T16:03:03.931Z,28.46
2018-06-16T16:05:31.409Z,28.72
2018-06-16T16:07:58.954Z,28.74
2018-06-16T16:10:27.549Z,28.85
2018-06-16T16:12:55.045Z,28.70
2018-06-16T16:15:22.484Z,28.67
2018-06-16T16:17:49.932Z,28.76
2018-06-16T16:20:17.494Z,28.60
2018-06-16T16:22:45.047Z,28.76
2018-06-16T16:25:12.515Z,28.81
2018-06-16T16:27:40.016Z,28.66
2018-06-16T16:30:07.472Z,28.78
2018-06-16T16:32:35.110Z,28.71
2018-06-16T16:35:02.654Z,28.61
2018-06-16T16:37:30.121Z,28.65
2018-06-16T16:39:57.565Z,28.75
2018-06-16T16:42:25.046Z,28.67
2018-06-16T16:44:52.941Z,28.77
2018-06-16T16:47:20.744Z,28.77
2018-06-16T16:49:48.259Z,28.74
2018-06-16T16:52:15.701Z,28.89
2018-06-16T16:54:43.182Z,28.88
2018-06-16T16:57:10.652Z,28.70
2018-06-16T16:59:39.030Z,28.64
2018-06-16T17:02:06.503Z,28.74
2018-06-16T17:04:33.968Z,28.64
2018-06-16T17:07:02.253Z,28.50
2018-06-16T17:09:29.759Z,28.47
2018-06-16T17:11:57.561Z,28.28
2018-06-16T17:14:25.188Z,28.27
2018-06-16T17:16:52.661Z,28.28
2018-06-16T17:19:20.176Z,28.27
2018-06-16T17:21:47.742Z,28.14
2018-06-16T17:24:15.438Z,27.94
2018-06-16T17:26:43.060Z,27.88
2018-06-16T17:29:10.563Z,27.76
2018-06-16T17:31:38.008Z,27.63
2018-06-16T17:34:05.430Z,27.62
2018-06-16T17:36:32.921Z,27.50
2018-06-16T17:39:00.486Z,27.39
2018-06-16T17:41:27.970Z,27.21
2018-06-16T17:43:55.537Z,27.17
2018-06-16T17:46:23.370Z,27.19
2018-06-16T17:48:50.864Z,27.14
2018-06-16T17:51:18.614Z,26.95
2018-06-16T17:53:46.225Z,27.03
2018-06-16T17:56:13.762Z,26.99
2018-06-16T17:58:41.274Z,27.01
2018-06-16T18:01:08.733Z,27.05
2018-06-16T18:03:36.272Z,27.01
2018-06-16T18:06:04.746Z,26.86
2018-06-16T18:08:32.242Z,26.68
2018-06-16T18:10:59.783Z,26.63
2018-06-16T18:13:27.393Z,26.53
2018-06-16T18:15:55.009Z,26.45
2018-06-16T18:18:22.529Z,26.37
2018-06-16T18:20:50.298Z,26.29
2018-06-16T18:23:17.345Z,26.22
2018-06-16T18:25:45.004Z,26.07
2018-06-16T18:28:12.109Z,26.00
2018-06-16T18:30:39.242Z,25.99
2018-06-16T18:33:07.161Z,25.92
2018-06-16T18:35:34.665Z,25.87
2018-06-16T18:38:02.191Z,25.82
2018-06-16T18:40:29.627Z,25.76
2018-06-16T18:42:57.303Z,25.65
2018-06-16T18:45:24.820Z,25.55
2018-06-16T18:47:52.634Z,25.43
2018-06-16T18:50:20.118Z,25.33
2018-06-16T18:52:48.189Z,25.26
2018-06-16T18:55:15.784Z,25.24
2018-06-16T18:57:43.263Z,25.23
2018-06-16T19:00:10.774Z,25.17
2018-06-16T19:02:38.197Z,25.10
2018-06-16T19:05:05.939Z,25.02
2018-06-16T19:07:33.412Z,24.95
2018-06-16T19:10:00.903Z,24.88
2018-06-16T19:12:28.431Z,24.85
2018-06-16T19:14:55.919Z,24.84
2018-06-16T19:17:23.373Z,24.85
2018-06-16T19:19:50.894Z,24.81
2018-06-16T19:22:18.400Z,24.78
2018-06-16T19:24:45.968Z,24.76
2018-06-16T19:27:13.448Z,24.74
2018-06-16T19:29:40.946Z,24.76
2018-06-16T19:32:08.526Z,24.73
2018-06-16T19:34:36.020Z,24.74
2018-06-16T19:37:03.570Z,24.78
2018-06-16T19:39:32.126Z,24.78
2018-06-16T19:41:59.586Z,24.75
2018-06-16T19:44:27.143Z,24.76
2018-06-16T19:46:54.611Z,24.68
2018-06-16T19:49:22.026Z,24.67
2018-06-16T19:51:49.925Z,24.67
2018-06-16T19:54:17.640Z,24.65
2018-06-16T19:56:45.111Z,24.63
2018-06-16T19:59:12.524Z,24.60
2018-06-16T20:01:40.110Z,24.60
2018-06-16T20:04:07.696Z,24.59
2018-06-16T20:06:36.126Z,24.54
2018-06-16T20:09:03.555Z,24.49
2018-06-16T20:11:31.111Z,24.48
2018-06-16T20:13:58.617Z,24.44
2018-06-16T20:16:26.078Z,24.44
2018-06-16T20:18:53.572Z,24.41
2018-06-16T20:21:21.072Z,24.36
2018-06-16T20:23:48.551Z,24.30
2018-06-16T20:26:15.999Z,24.23
2018-06-16T20:28:43.417Z,24.25
2018-06-16T20:31:10.861Z,24.24
2018-06-16T20:33:38.506Z,24.21
2018-06-16T20:36:05.944Z,24.26
2018-06-16T20:38:33.410Z,24.29
2018-06-16T20:41:01.031Z,24.31
2018-06-16T20:43:28.604Z,24.35
2018-06-16T20:45:56.196Z,24.40
2018-06-16T20:48:24.355Z,24.43
2018-06-16T20:50:51.841Z,24.41
2018-06-16T20:53:20.045Z,24.35
2018-06-16T20:55:47.713Z,24.32
2018-06-16T20:58:15.247Z,24.29
2018-06-16T21:00:42.913Z,24.22
2018-06-16T21:03:10.506Z,24.18
2018-06-16T21:05:38.181Z,24.16
2018-06-16T21:08:05.615Z,24.13
2018-06-16T21:10:33.048Z,24.11
2018-06-16T21:13:00.625Z,24.07
2018-06-16T21:15:28.039Z,24.04
2018-06-16T21:17:55.501Z,24.05
2018-06-16T21:20:22.956Z,24.05
2018-06-16T21:22:50.401Z,24.01
2018-06-16T21:25:18.562Z,23.94
2018-06-16T21:27:47.378Z,23.81
2018-06-16T21:30:15.032Z,23.72
2018-06-16T21:32:42.991Z,23.70
2018-06-16T21:35:10.470Z,23.65
2018-06-16T21:37:37.909Z,23.62
2018-06-16T21:40:05.409Z,23.59
2018-06-16T21:42:32.849Z,23.57
2018-06-16T21:45:00.316Z,23.53
2018-06-16T21:47:27.842Z,23.45
2018-06-16T21:49:55.616Z,23.40
2018-06-16T21:52:23.126Z,23.36
2018-06-16T21:54:50.761Z,23.35
2018-06-16T21:57:18.356Z,23.31
2018-06-16T21:59:45.839Z,23.25
2018-06-16T22:02:13.357Z,23.18
2018-06-16T22:04:40.880Z,23.14
2018-06-16T22:07:08.669Z,23.11
2018-06-16T22:09:36.292Z,23.06
2018-06-16T22:12:03.766Z,23.08
2018-06-16T22:14:31.346Z,23.07
2018-06-16T22:16:58.874Z,23.04
2018-06-16T22:19:26.361Z,23.05
2018-06-16T22:21:53.800Z,23.08
2018-06-16T22:24:21.388Z,23.09
2018-06-16T22:26:48.954Z,23.08
2018-06-16T22:29:16.590Z,23.08
2018-06-16T22:31:44.120Z,23.08
2018-06-16T22:34:11.686Z,23.12
2018-06-16T22:36:39.118Z,23.19
2018-06-16T22:39:06.679Z,23.19
2018-06-16T22:41:34.318Z,23.21
2018-06-16T22:44:01.874Z,23.26
2018-06-16T22:46:29.424Z,23.28
2018-06-16T22:48:56.875Z,23.28
2018-06-16T22:51:24.508Z,23.29
2018-06-16T22:53:53.001Z,23.29
2018-06-16T22:56:20.568Z,23.30
2018-06-16T22:58:48.024Z,23.27
2018-06-16T23:01:15.666Z,23.30
2018-06-16T23:03:43.169Z,23.30
2018-06-16T23:06:11.612Z,23.33
2018-06-16T23:08:39.389Z,23.32
2018-06-16T23:11:06.875Z,23.34
2018-06-16T23:13:34.508Z,23.31
2018-06-16T23:16:02.094Z,23.02
2018-06-16T23:18:29.666Z,22.80
2018-06-16T23:20:57.206Z,22.64
2018-06-16T23:23:24.744Z,22.65
2018-06-16T23:25:52.220Z,22.72
2018-06-16T23:28:19.715Z,22.59
2018-06-16T23:30:47.140Z,22.70
2018-06-16T23:33:14.591Z,22.77
2018-06-16T23:35:42.083Z,22.82
2018-06-16T23:38:09.617Z,22.90
2018-06-16T23:40:37.583Z,22.95
2018-06-16T23:43:05.206Z,22.99
2018-06-16T23:45:32.791Z,22.97
2018-06-16T23:48:00.252Z,22.92
2018-06-16T23:50:27.755Z,22.84
2018-06-16T23:52:55.438Z,22.66
2018-06-16T23:55:22.970Z,22.55
2018-06-16T23:57:50.452Z,22.54
